MUC | München Airways

 METAR UND TAF INFORMATION

METAR FOR EGNX
ADDS - METARS form results

(0543 UTC 24 May 2019)
Data provider http://aviationweather.gov/metar/data/
 
METAR text: EGNX 240520Z 25010KT 5000 BR NSC 10/09 Q1016
Conditions at: EGNX (EAST MIDLANDS , GB) observed 0520 UTC 24 May 2019
Temperature: 10.0°C (50°F)
Dewpoint: 9.0°C (48°F) [RH = 93%]
Pressure (altimeter): 30.00 inches Hg (1016.0 mb)
Winds: from the WSW (250 degrees) at 12 MPH (10 knots; 5.1 m/s)
Visibility: 3 miles ( 5 km)
Ceiling: at least 12,000 feet AGL
Clouds: sky clear below 12,000 feet AGL
Weather: BR  (mist)

METAR text: EGNX 240450Z 26009KT 5000 BR NSC 10/09 Q1017
Conditions at: EGNX (EAST MIDLANDS , GB) observed 0450 UTC 24 May 2019
Temperature: 10.0°C (50°F)
Dewpoint: 9.0°C (48°F) [RH = 93%]
Pressure (altimeter): 30.03 inches Hg (1017.0 mb)
Winds: from the W (260 degrees) at 10 MPH (9 knots; 4.6 m/s)
Visibility: 3 miles ( 5 km)
Ceiling: at least 12,000 feet AGL
Clouds: sky clear below 12,000 feet AGL
Weather: BR  (mist)

Forecast for: EGNX (EAST MIDLANDS , GB)
Text: TAF EGNX 240455Z 2406/2506 29009KT 6000 FEW035
Forecast period: 0600 UTC 24 May 2019 to 0600 UTC 25 May 2019
Forecast type: FROM: standard forecast or significant change
Winds: from the WNW (290 degrees) at 10 MPH (9 knots; 4.6 m/s)
Visibility: 4 miles (6 km)
Ceiling: at least 12,000 feet AGL
Clouds: few clouds at 3500 feet AGL
Weather: no significant weather forecast for this period
Text: BECMG 2406/2409 9999
Forecast period: 0600 UTC 24 May 2019 to 0600 UTC 25 May 2019
Forecast type: BECOMING: Conditions expected to become as follows by 0900 UTC 24 May 2019
Winds: from the WNW (290 degrees) at 10 MPH (9 knots; 4.6 m/s)
Visibility: 6 or more miles 10+ km)
Ceiling: at least 12,000 feet AGL
Clouds: few clouds at 3500 feet AGL
Weather: no significant weather forecast for this period
Text: PROB30
Forecast period: 1300 to 1700 UTC 24 May 2019
Forecast type: TEMPORARY: The following changes expected for less than half the time period
Visibility: 4 miles (7 km)
Ceiling: unknown
Clouds: missing
Weather: SHRA  (rain showers)
Text: TEMPO 2413/2417 7000 SHRA
Forecast period: 0400 to 0600 UTC 25 May 2019
Forecast type: TEMPORARY: The following changes expected for less than half the time period
Visibility: 5 miles (8 km)
Ceiling: 800 feet AGL
Clouds: broken clouds at 800 feet AGL
Weather: no significant weather forecast for this period

 FLUGHAFENKARTE

 RUNWAY INFORMATION
Runway 09 Runway length 9491 ft Runway width 151 ft
Runway elevation 306 ft Runway displaced threshold 590 ft Runway heading 88
Runway 27 Runway length 9491 ft Runway width 151 ft
Runway elevation 282 ft Runway displaced threshold 426 ft Runway heading 268

 AIRPORT FREQUENCIES
Type APP Name APP Frequency 134.175 MHZ
Type ATIS Name ATIS Frequency 128.225 MHZ
Type GND Name GND Frequency 121.9 MHZ
Type TWR Name TWR Frequency 124 MHZ
Type Fire servi Name Frequency 121.6 MHZ

 AIRPORT NEAR NAVIGATION AIDS